Little Chicago, Wisconsin
Current Conditions -  °F | °C
As of 10:54 AM on Thursday 30 Oct 2014 (Local Time) from KAUW Reporting Station
Overcast Overcast  
Wind Chill: 34°   Ceiling: 7000
Heat Index: 38°   Visibility: 10mi
Dew Point: 33°   Wind: 5mph
Humidity: 83%   Direction: 280°W
Pressure: 30.06"   Gusts: NA
Location:  44.9438°N, 89.8335°W
Report Text: KAUW 301554Z AUTO 28004KT 10SM OVC070 03/01 A3006 RMK AO2 SLP195 T00330006
Loading
Personal Weather Stations






























Interactive Weather Map
Tropical Storm Tracking
New forecast layout! Learn more

10-Day Weather Forecast

Advertisements
Track Severe Weather on mobile